Observations for Trim Patrick St
| Time | AQI | Temp °C | Hum % | Pres Pa | CO μg/m³ | H₂S μg/m³ | NO μg/m³ | NO₂ μg/m³ | O₃ μg/m³ | SO₂ μg/m³ | PM1 μg/m³ | PM2.5 μg/m³ | PM10 μg/m³ |
|---|---|---|---|---|---|---|---|---|---|---|---|---|---|
| Friday 28 August 2026 | |||||||||||||
| 07:28 | 2 | 16.4 | 89 | 38,459 | 0.22 | 2.33 | 2.42 | 9.74 | 26.85 | 0 | 14 | 19.63 | 21.59 |
| 07:27 | 2 | 16.4 | 89 | 38,459 | 0.21 | 1.97 | 2.4 | 2.82 | 34.53 | 0 | 15.71 | 21.66 | 23.83 |
| 07:26 | 2 | 16.4 | 89 | 38,459 | 0.24 | 2.47 | 2.42 | 5.06 | 29.47 | 0 | 15.71 | 23.03 | 25.34 |
| 07:24 | 2 | 16.4 | 89 | 38,459 | 0.2 | 2.39 | 2.45 | 5.36 | 33.53 | 0 | 14.86 | 20.99 | 23.09 |
| 07:23 | 2 | 16.4 | 89 | 38,459 | 0.21 | 1.63 | 2.42 | 3.68 | 33.48 | 0 | 15.71 | 23.03 | 25.34 |
| 07:22 | 2 | 16.3 | 89 | 38,459 | 0.2 | 2.21 | 2.42 | 4.41 | 33.84 | 0 | 14 | 20.31 | 22.34 |
| 07:21 | 2 | 16.3 | 89 | 38,459 | 0.22 | 2.88 | 2.5 | 12.22 | 30.32 | 0 | 15.71 | 24.4 | 26.84 |
| 07:20 | 2 | 16.4 | 89 | 38,459 | 0.22 | 2.52 | 2.45 | 13.44 | 30.43 | 0 | 13.14 | 20.99 | 23.09 |
| 07:19 | 2 | 16.3 | 89 | 38,459 | 0.22 | 2.78 | 2.42 | 10 | 29.77 | 0 | 14.86 | 21.67 | 23.84 |
| 07:18 | 2 | 16.3 | 89 | 38,459 | 0.21 | 1.79 | 2.41 | 3.08 | 33.76 | 0 | 14 | 21.66 | 23.83 |
| 07:17 | 2 | 16.3 | 89 | 38,459 | 0.21 | 2.34 | 2.42 | 2.76 | 38.66 | 0 | 15.71 | 20.3 | 22.33 |
| 07:16 | 2 | 16.3 | 89 | 38,459 | 0.21 | 1.87 | 2.39 | 3.24 | 34.81 | 0 | 14.86 | 23.7 | 26.07 |
| 07:15 | 2 | 16.3 | 89 | 38,459 | 0.21 | 2.15 | 2.41 | 3.24 | 31.75 | 0 | 14 | 20.98 | 23.08 |
| 07:14 | 2 | 16.3 | 89 | 38,459 | 0.21 | 1.81 | 2.41 | 2.13 | 39.58 | 0 | 14.86 | 23.02 | 25.32 |
| 07:13 | 2 | 16.3 | 89 | 38,459 | 0.21 | 2.67 | 2.42 | 2.26 | 38.01 | 0 | 15.71 | 23.02 | 25.32 |
| 07:12 | 2 | 16.3 | 89 | 38,459 | 0.22 | 1.94 | 2.38 | 2.07 | 35.96 | 0 | 14 | 18.26 | 20.08 |
| 07:11 | 2 | 16.3 | 89 | 38,459 | 0.22 | 1.87 | 2.37 | 2.26 | 37.78 | 0 | 14 | 21.66 | 23.83 |
| 07:10 | 2 | 16.3 | 89 | 38,459 | 0.22 | 2.28 | 2.38 | 2.13 | 38.47 | 0 | 15.71 | 20.98 | 23.08 |
| 07:09 | 2 | 16.3 | 89 | 38,459 | 0.21 | 2.81 | 2.36 | 3.44 | 33.48 | 0 | 14.86 | 20.31 | 22.34 |
| 07:08 | 2 | 16.3 | 89 | 38,459 | 0.21 | 2.41 | 2.39 | 4.49 | 39.23 | 0 | 13.14 | 20.98 | 23.08 |